createdAt,value
2019-06-10T00:00:21.819Z,17.71
2019-06-10T00:02:50.776Z,17.73
2019-06-10T00:05:21.467Z,17.90
2019-06-10T00:07:47.853Z,17.74
2019-06-10T00:10:16.795Z,17.71
2019-06-10T00:12:45.735Z,17.63
2019-06-10T00:15:14.641Z,17.82
2019-06-10T00:17:54.794Z,17.62
2019-06-10T00:20:12.464Z,17.54
2019-06-10T00:22:41.386Z,17.74
2019-06-10T00:25:12.021Z,17.56
2019-06-10T00:27:41.891Z,17.53
2019-06-10T00:30:09.923Z,17.46
2019-06-10T00:32:37.170Z,17.46
2019-06-10T00:35:07.668Z,17.45
2019-06-10T00:37:35.045Z,17.41
2019-06-10T00:40:05.918Z,17.41
2019-06-10T00:42:33.003Z,17.41
2019-06-10T00:45:04.498Z,17.38
2019-06-10T00:47:30.907Z,17.36
2019-06-10T00:50:03.277Z,17.33
2019-06-10T00:52:30.743Z,17.34
2019-06-10T00:54:57.557Z,17.32
2019-06-10T00:57:26.437Z,17.33
2019-06-10T00:59:55.340Z,17.49
2019-06-10T01:02:24.234Z,17.30
2019-06-10T01:04:53.235Z,17.27
2019-06-10T01:07:22.138Z,17.26
2019-06-10T01:09:51.699Z,17.24
2019-06-10T01:12:21.123Z,17.20
2019-06-10T01:14:48.938Z,17.21
2019-06-10T01:17:17.875Z,17.19
2019-06-10T01:19:46.839Z,17.13
2019-06-10T01:22:17.194Z,17.23
2019-06-10T01:24:44.648Z,17.07
2019-06-10T01:27:15.083Z,17.03
2019-06-10T01:29:42.481Z,17.01
2019-06-10T01:32:12.254Z,17.00
2019-06-10T01:34:41.678Z,17.01
2019-06-10T01:37:11.351Z,17.01
2019-06-10T01:39:38.145Z,17.01
2019-06-10T01:42:08.207Z,16.91
2019-06-10T01:44:35.979Z,16.94
2019-06-10T01:47:04.870Z,16.95
2019-06-10T01:49:33.808Z,16.95
2019-06-10T01:52:02.732Z,16.90
2019-06-10T01:54:31.803Z,16.85
2019-06-10T01:57:01.503Z,16.79
2019-06-10T01:59:31.161Z,16.76
2019-06-10T02:02:06.733Z,16.78
2019-06-10T02:04:35.633Z,16.72
2019-06-10T02:07:04.565Z,16.71
2019-06-10T02:09:33.469Z,16.69
2019-06-10T02:12:02.456Z,16.69
2019-06-10T02:14:31.867Z,16.70
2019-06-10T02:17:01.231Z,16.67
2019-06-10T02:19:31.123Z,16.65
2019-06-10T02:21:58.069Z,16.59
2019-06-10T02:24:26.977Z,16.60
2019-06-10T02:26:55.881Z,16.52
2019-06-10T02:29:24.805Z,16.51
2019-06-10T02:31:53.729Z,16.43
2019-06-10T02:34:27.007Z,16.43
2019-06-10T02:36:53.684Z,16.45
2019-06-10T02:39:28.078Z,16.48
2019-06-10T02:41:49.360Z,16.50
2019-06-10T02:44:21.797Z,16.51
2019-06-10T02:46:47.209Z,16.45
2019-06-10T02:49:30.134Z,16.48
2019-06-10T02:51:44.972Z,16.60
2019-06-10T02:54:16.320Z,16.45
2019-06-10T02:56:44.247Z,16.38
2019-06-10T02:59:13.210Z,16.39
2019-06-10T03:01:43.918Z,16.38
2019-06-10T03:04:13.515Z,16.36
2019-06-10T03:06:40.206Z,16.33
2019-06-10T03:09:07.458Z,16.33
2019-06-10T03:11:37.461Z,16.23
2019-06-10T03:14:05.404Z,16.23
2019-06-10T03:16:49.008Z,16.11
2019-06-10T03:19:36.014Z,16.31
2019-06-10T03:21:46.828Z,16.17
2019-06-10T03:24:16.983Z,16.15
2019-06-10T03:26:44.677Z,16.16
2019-06-10T03:29:13.598Z,16.14
2019-06-10T03:31:47.825Z,16.10
2019-06-10T03:34:14.745Z,16.04
2019-06-10T03:36:42.790Z,15.95
2019-06-10T03:39:09.481Z,15.95
2019-06-10T03:41:38.461Z,15.93
2019-06-10T03:44:07.387Z,15.86
2019-06-10T03:46:36.304Z,15.77
2019-06-10T03:49:05.264Z,15.73
2019-06-10T03:51:34.201Z,15.70
2019-06-10T03:54:03.093Z,15.67
2019-06-10T03:56:32.354Z,15.68
2019-06-10T03:59:02.869Z,15.69
2019-06-10T04:01:30.139Z,15.71
2019-06-10T04:03:58.709Z,15.72
2019-06-10T04:06:29.216Z,15.75
2019-06-10T04:08:56.619Z,15.78
2019-06-10T04:11:27.042Z,15.79
2019-06-10T04:13:54.460Z,15.85
2019-06-10T04:16:25.383Z,15.93
2019-06-10T04:18:53.418Z,16.00
2019-06-10T04:21:22.749Z,16.00
2019-06-10T04:23:52.659Z,16.01
2019-06-10T04:26:19.757Z,16.04
2019-06-10T04:28:48.030Z,16.08
2019-06-10T04:31:18.145Z,16.13
2019-06-10T04:33:45.850Z,16.17
2019-06-10T04:36:14.753Z,16.27
2019-06-10T04:38:43.668Z,16.33
2019-06-10T04:41:12.840Z,16.38
2019-06-10T04:43:43.208Z,16.38
2019-06-10T04:46:12.471Z,16.45
2019-06-10T04:48:39.308Z,16.53
2019-06-10T04:51:08.517Z,16.63
2019-06-10T04:53:40.223Z,16.77
2019-06-10T04:56:06.516Z,16.89
2019-06-10T04:58:35.421Z,16.97
2019-06-10T05:01:04.417Z,17.00
2019-06-10T05:03:33.302Z,17.10
2019-06-10T05:06:03.319Z,17.13
2019-06-10T05:08:33.580Z,17.18
2019-06-10T05:11:00.126Z,17.24
2019-06-10T05:13:29.974Z,17.19
2019-06-10T05:15:57.970Z,17.21
2019-06-10T05:18:27.617Z,17.22
2019-06-10T05:20:58.596Z,17.25
2019-06-10T05:23:26.064Z,17.31
2019-06-10T05:25:56.167Z,17.33
2019-06-10T05:28:24.474Z,17.42
2019-06-10T05:30:53.192Z,17.46
2019-06-10T05:33:22.813Z,17.56
2019-06-10T05:35:49.332Z,17.61
2019-06-10T05:38:18.251Z,17.67
2019-06-10T05:40:47.141Z,17.77
2019-06-10T05:43:16.058Z,17.82
2019-06-10T05:45:44.981Z,17.70
2019-06-10T05:48:16.764Z,17.77
2019-06-10T05:50:42.884Z,17.80
2019-06-10T05:53:13.113Z,17.81
2019-06-10T05:55:42.768Z,17.88
2019-06-10T05:58:09.708Z,17.85
2019-06-10T06:00:38.593Z,17.80
2019-06-10T06:03:07.622Z,17.82
2019-06-10T06:05:38.038Z,17.76
2019-06-10T06:08:08.569Z,17.81
2019-06-10T06:10:36.012Z,17.78
2019-06-10T06:13:03.352Z,17.98
2019-06-10T06:15:34.483Z,18.17
2019-06-10T06:18:09.899Z,18.24
2019-06-10T06:20:31.273Z,18.50
2019-06-10T06:22:58.963Z,18.79
2019-06-10T06:25:29.880Z,18.82
2019-06-10T06:27:56.866Z,19.01
2019-06-10T06:30:26.145Z,19.28
2019-06-10T06:32:54.677Z,19.35
2019-06-10T06:35:23.582Z,19.45
2019-06-10T06:37:54.103Z,19.55
2019-06-10T06:40:23.100Z,20.16
2019-06-10T06:42:52.447Z,21.14
2019-06-10T06:45:19.247Z,21.42
2019-06-10T06:47:48.163Z,21.31
2019-06-10T06:50:17.065Z,21.87
2019-06-10T06:53:14.660Z,22.14
2019-06-10T06:55:14.874Z,22.92
2019-06-10T06:57:43.813Z,24.77
2019-06-10T07:00:33.857Z,25.92
2019-06-10T07:02:43.546Z,27.26
2019-06-10T07:05:12.545Z,28.00
2019-06-10T07:07:41.106Z,28.77
2019-06-10T07:10:08.574Z,29.75
2019-06-10T07:12:38.218Z,30.32
2019-06-10T07:15:07.387Z,31.17
2019-06-10T07:17:37.934Z,31.77
2019-06-10T07:20:05.625Z,32.06
2019-06-10T07:22:36.901Z,32.67
2019-06-10T07:25:06.455Z,32.24
2019-06-10T07:27:35.345Z,32.15
2019-06-10T07:30:11.290Z,32.49
2019-06-10T07:32:30.198Z,32.79
2019-06-10T07:35:02.915Z,33.28
2019-06-10T07:37:32.772Z,32.96
2019-06-10T07:39:59.478Z,33.04
2019-06-10T07:42:28.418Z,33.12
2019-06-10T07:44:57.335Z,33.22
2019-06-10T07:47:26.280Z,33.98
2019-06-10T07:49:55.222Z,34.31
2019-06-10T07:52:24.181Z,34.74
2019-06-10T07:54:53.173Z,33.63
2019-06-10T07:57:22.597Z,34.22
2019-06-10T07:59:52.235Z,34.72
2019-06-10T08:02:19.835Z,34.09
2019-06-10T08:04:48.736Z,34.72
2019-06-10T08:07:17.626Z,34.96
2019-06-10T08:09:47.441Z,35.03
2019-06-10T08:12:15.555Z,35.58
2019-06-10T08:14:45.800Z,35.81
2019-06-10T08:17:13.316Z,35.88
2019-06-10T08:19:48.685Z,36.03
2019-06-10T08:22:13.170Z,36.28
2019-06-10T08:24:42.381Z,36.75
2019-06-10T08:27:09.001Z,36.86
2019-06-10T08:29:38.627Z,36.74
2019-06-10T08:32:06.908Z,37.11
2019-06-10T08:34:35.986Z,35.96
2019-06-10T08:37:04.779Z,36.24
2019-06-10T08:39:33.714Z,36.14
2019-06-10T08:42:03.115Z,36.40
2019-06-10T08:44:32.785Z,36.57
2019-06-10T08:47:00.407Z,36.31
2019-06-10T08:49:29.322Z,36.14
2019-06-10T08:51:58.213Z,36.81
2019-06-10T08:54:27.135Z,36.46
2019-06-10T08:56:56.027Z,35.89
2019-06-10T08:59:24.935Z,36.12
2019-06-10T09:01:56.919Z,36.17
2019-06-10T09:04:22.882Z,36.91
2019-06-10T09:06:53.773Z,36.75
2019-06-10T09:09:22.580Z,36.57
2019-06-10T09:11:51.968Z,36.64
2019-06-10T09:14:18.508Z,36.65
2019-06-10T09:16:49.010Z,36.64
2019-06-10T09:19:16.286Z,35.92
2019-06-10T09:21:49.753Z,35.61
2019-06-10T09:24:14.129Z,35.70
2019-06-10T09:26:45.073Z,35.97
2019-06-10T09:29:13.350Z,36.27
2019-06-10T09:31:45.568Z,36.34
2019-06-10T09:34:12.575Z,36.46
2019-06-10T09:36:40.989Z,36.77
2019-06-10T09:39:08.028Z,36.37
2019-06-10T09:41:41.506Z,36.58
2019-06-10T09:44:06.053Z,36.43
2019-06-10T09:46:34.963Z,36.24
2019-06-10T09:49:04.666Z,36.18
2019-06-10T09:51:34.327Z,36.44
2019-06-10T09:54:06.535Z,36.04
2019-06-10T09:56:33.113Z,36.51
2019-06-10T09:59:03.108Z,36.49
2019-06-10T10:01:32.511Z,37.07
2019-06-10T10:04:00.340Z,37.40
2019-06-10T10:06:27.527Z,36.80
2019-06-10T10:08:58.276Z,36.97
2019-06-10T10:11:28.496Z,36.92
2019-06-10T10:13:54.355Z,36.63
2019-06-10T10:16:23.283Z,36.14
2019-06-10T10:19:00.312Z,36.41
2019-06-10T10:21:22.324Z,36.47
2019-06-10T10:24:05.859Z,36.60
2019-06-10T10:26:19.012Z,36.37
2019-06-10T10:28:48.787Z,36.52
2019-06-10T10:31:17.061Z,36.35
2019-06-10T10:33:46.747Z,36.31
2019-06-10T10:36:14.926Z,36.16
2019-06-10T10:38:44.732Z,36.06
2019-06-10T10:41:13.596Z,35.97
2019-06-10T10:43:44.884Z,36.22
2019-06-10T10:46:13.509Z,35.99
2019-06-10T10:48:39.635Z,35.18
2019-06-10T10:51:08.712Z,34.43
2019-06-10T10:53:37.649Z,34.52
2019-06-10T10:56:06.669Z,34.11
2019-06-10T10:58:35.584Z,34.12
2019-06-10T11:01:04.992Z,34.61
2019-06-10T11:03:33.829Z,34.86
2019-06-10T11:06:02.427Z,35.44
2019-06-10T11:08:33.182Z,35.00
2019-06-10T11:11:03.636Z,35.27
2019-06-10T11:13:29.153Z,34.95
2019-06-10T11:15:58.470Z,34.92
2019-06-10T11:18:26.984Z,34.73
2019-06-10T11:20:55.888Z,34.73
2019-06-10T11:23:24.817Z,33.91
2019-06-10T11:25:57.062Z,33.15
2019-06-10T11:28:22.916Z,32.26
2019-06-10T11:30:56.337Z,32.01
2019-06-10T11:33:22.777Z,31.69
2019-06-10T11:35:49.366Z,31.35
2019-06-10T11:38:18.310Z,31.86
2019-06-10T11:40:47.229Z,32.41
2019-06-10T11:43:16.149Z,33.03
2019-06-10T11:45:48.917Z,33.38
2019-06-10T11:48:13.981Z,32.88
2019-06-10T11:50:42.976Z,32.63
2019-06-10T11:53:12.828Z,32.44
2019-06-10T11:55:42.336Z,32.22
2019-06-10T11:58:09.665Z,32.06
2019-06-10T12:00:38.605Z,31.96
2019-06-10T12:03:07.569Z,31.26
2019-06-10T12:05:36.524Z,30.79
2019-06-10T12:08:05.462Z,30.74
2019-06-10T12:10:34.373Z,30.83
2019-06-10T12:13:07.124Z,30.90
2019-06-10T12:15:59.331Z,30.95
2019-06-10T12:18:07.987Z,31.25
2019-06-10T12:20:30.108Z,31.06
2019-06-10T12:23:02.092Z,31.07
2019-06-10T12:25:35.546Z,31.07
2019-06-10T12:28:01.241Z,31.01
2019-06-10T12:30:25.769Z,30.76
2019-06-10T12:32:58.735Z,30.75
2019-06-10T12:35:23.608Z,30.56
2019-06-10T12:37:56.198Z,30.79
2019-06-10T12:40:21.433Z,30.64
2019-06-10T12:42:53.122Z,30.60
2019-06-10T12:45:19.240Z,30.42
2019-06-10T12:47:48.137Z,30.06
2019-06-10T12:50:17.030Z,29.69
2019-06-10T12:52:45.934Z,29.29
2019-06-10T12:55:14.824Z,29.07
2019-06-10T12:57:43.747Z,28.94
2019-06-10T13:00:20.612Z,28.85
2019-06-10T13:02:42.760Z,28.96
2019-06-10T13:05:12.211Z,28.95
2019-06-10T13:07:39.480Z,28.93
2019-06-10T13:10:08.884Z,29.04
2019-06-10T13:12:37.679Z,28.99
2019-06-10T13:15:08.445Z,28.81
2019-06-10T13:17:35.720Z,28.67
2019-06-10T13:20:06.521Z,28.85
2019-06-10T13:22:34.075Z,29.08
2019-06-10T13:25:02.989Z,29.01
2019-06-10T13:27:31.994Z,28.74
2019-06-10T13:30:01.413Z,28.78
2019-06-10T13:32:32.331Z,28.47
2019-06-10T13:34:58.602Z,28.56
2019-06-10T13:37:27.519Z,28.49
2019-06-10T13:39:57.517Z,28.49
2019-06-10T13:42:25.340Z,28.60
2019-06-10T13:44:54.242Z,28.53
2019-06-10T13:47:26.034Z,28.53
2019-06-10T13:49:53.279Z,28.37
2019-06-10T13:52:23.166Z,28.11
2019-06-10T13:54:49.901Z,27.89
2019-06-10T13:57:18.819Z,28.05
2019-06-10T13:59:47.743Z,28.19
2019-06-10T14:02:16.714Z,28.34
2019-06-10T14:04:45.643Z,28.55
2019-06-10T14:07:17.497Z,28.72
2019-06-10T14:09:43.432Z,28.64
2019-06-10T14:12:13.447Z,28.50
2019-06-10T14:14:42.541Z,28.48
2019-06-10T14:17:15.885Z,28.38
2019-06-10T14:19:39.245Z,28.28
2019-06-10T14:22:09.933Z,28.20
2019-06-10T14:24:37.213Z,28.27
2019-06-10T14:27:08.729Z,28.21
2019-06-10T14:29:35.191Z,28.04
2019-06-10T14:32:05.689Z,28.00
2019-06-10T14:34:33.068Z,27.96
2019-06-10T14:37:02.037Z,27.78
2019-06-10T14:39:32.933Z,27.74
2019-06-10T14:41:59.762Z,27.85
2019-06-10T14:44:28.665Z,27.73
2019-06-10T14:46:57.555Z,27.80
2019-06-10T14:49:26.468Z,27.85
2019-06-10T14:51:55.374Z,27.84
2019-06-10T14:54:24.310Z,27.69
2019-06-10T14:56:57.123Z,27.58
2019-06-10T14:59:22.531Z,27.63
2019-06-10T15:01:52.118Z,27.64
2019-06-10T15:04:22.316Z,27.65
2019-06-10T15:06:48.816Z,27.42
2019-06-10T15:09:17.713Z,27.56
2019-06-10T15:11:46.630Z,27.56
2019-06-10T15:14:16.260Z,27.41
2019-06-10T15:16:44.431Z,27.28
2019-06-10T15:19:19.952Z,27.31
2019-06-10T15:21:42.897Z,27.03
2019-06-10T15:24:11.973Z,27.02
2019-06-10T15:26:42.196Z,26.91
2019-06-10T15:29:09.294Z,27.02
2019-06-10T15:31:38.343Z,26.99
2019-06-10T15:34:08.506Z,26.93
2019-06-10T15:36:36.111Z,26.90
2019-06-10T15:39:06.681Z,26.90
2019-06-10T15:41:35.541Z,26.91
2019-06-10T15:44:04.505Z,26.96
2019-06-10T15:46:33.413Z,26.97
2019-06-10T15:49:02.490Z,26.89
2019-06-10T15:51:33.132Z,26.75
2019-06-10T15:54:02.444Z,26.78
2019-06-10T15:56:39.875Z,26.80
2019-06-10T15:58:57.969Z,26.77
2019-06-10T16:01:27.534Z,26.82
2019-06-10T16:03:55.783Z,26.85
2019-06-10T16:06:24.689Z,26.82
2019-06-10T16:08:53.612Z,26.98
2019-06-10T16:11:26.733Z,27.28
2019-06-10T16:13:53.335Z,27.02
2019-06-10T16:16:21.045Z,27.00
2019-06-10T16:18:49.227Z,27.02
2019-06-10T16:21:19.118Z,27.09
2019-06-10T16:23:47.023Z,27.09
2019-06-10T16:26:16.265Z,27.10
2019-06-10T16:28:44.855Z,27.09
2019-06-10T16:31:15.274Z,26.75
2019-06-10T16:33:49.294Z,26.62
2019-06-10T16:36:12.256Z,26.60
2019-06-10T16:38:42.302Z,26.65
2019-06-10T16:41:09.540Z,26.31
2019-06-10T16:43:38.430Z,26.11
2019-06-10T16:46:07.583Z,26.03
2019-06-10T16:48:36.563Z,25.89
2019-06-10T16:51:05.634Z,25.80
2019-06-10T16:53:35.689Z,25.73
2019-06-10T16:56:03.594Z,25.82
2019-06-10T16:58:33.373Z,25.84
2019-06-10T17:01:03.495Z,25.87
2019-06-10T17:03:31.347Z,25.89
2019-06-10T17:05:59.257Z,25.93
2019-06-10T17:08:28.566Z,25.69
2019-06-10T17:10:57.039Z,25.68
2019-06-10T17:13:27.228Z,25.56
2019-06-10T17:15:54.893Z,25.60
2019-06-10T17:18:26.270Z,25.66
2019-06-10T17:20:53.508Z,25.56
2019-06-10T17:23:26.646Z,25.56
2019-06-10T17:25:53.455Z,25.38
2019-06-10T17:28:24.795Z,25.17
2019-06-10T17:30:49.851Z,25.21
2019-06-10T17:33:20.427Z,25.01
2019-06-10T17:35:47.673Z,24.87
2019-06-10T17:38:16.626Z,25.28
2019-06-10T17:40:45.551Z,25.02
2019-06-10T17:43:14.457Z,24.92
2019-06-10T17:45:43.373Z,24.81
2019-06-10T17:48:12.939Z,24.68
2019-06-10T17:50:42.868Z,24.55
2019-06-10T17:53:12.564Z,24.52
2019-06-10T17:55:38.958Z,24.41
2019-06-10T17:58:08.037Z,24.35
2019-06-10T18:00:36.973Z,24.71
2019-06-10T18:03:05.876Z,24.46
2019-06-10T18:05:34.804Z,24.36
2019-06-10T18:08:03.697Z,24.35
2019-06-10T18:10:35.687Z,24.24
2019-06-10T18:13:13.128Z,24.07
2019-06-10T18:15:33.306Z,24.06
2019-06-10T18:17:59.328Z,24.18
2019-06-10T18:20:28.832Z,24.37
2019-06-10T18:22:57.113Z,24.14
2019-06-10T18:25:26.611Z,24.03
2019-06-10T18:27:54.958Z,23.99
2019-06-10T18:30:25.095Z,23.89
2019-06-10T18:32:52.799Z,23.86
2019-06-10T18:35:22.389Z,23.71
2019-06-10T18:37:52.777Z,23.58
2019-06-10T18:40:19.573Z,23.40
2019-06-10T18:42:48.490Z,23.24
2019-06-10T18:45:17.425Z,22.74
2019-06-10T18:47:46.315Z,22.57
2019-06-10T18:50:15.228Z,22.33
2019-06-10T18:52:44.122Z,22.22
2019-06-10T18:55:13.044Z,22.00
2019-06-10T18:57:42.574Z,21.92
2019-06-10T19:00:14.328Z,21.75
2019-06-10T19:02:39.814Z,21.64
2019-06-10T19:05:08.859Z,21.47
2019-06-10T19:07:38.657Z,21.45
2019-06-10T19:10:06.899Z,21.39
2019-06-10T19:12:37.010Z,21.35
2019-06-10T19:15:04.951Z,21.33
2019-06-10T19:17:36.905Z,21.30
2019-06-10T19:20:03.999Z,21.14
2019-06-10T19:22:34.392Z,21.14
2019-06-10T19:25:03.491Z,21.46
2019-06-10T19:27:30.587Z,21.11
2019-06-10T19:29:58.474Z,21.02
2019-06-10T19:32:27.396Z,20.88
2019-06-10T19:34:56.284Z,20.95
2019-06-10T19:37:25.201Z,21.06
2019-06-10T19:39:54.311Z,21.00
2019-06-10T19:42:23.063Z,20.84
2019-06-10T19:44:52.372Z,21.24
2019-06-10T19:47:23.366Z,20.90
2019-06-10T19:49:52.115Z,20.87
2019-06-10T19:52:18.694Z,20.85
2019-06-10T19:54:47.605Z,20.83
2019-06-10T19:57:16.507Z,20.74
2019-06-10T20:00:03.518Z,20.55
2019-06-10T20:02:14.331Z,20.65
2019-06-10T20:04:45.533Z,20.39
2019-06-10T20:07:12.826Z,20.34
2019-06-10T20:09:43.525Z,20.37
2019-06-10T20:12:12.390Z,20.36
2019-06-10T20:14:38.936Z,20.34
2019-06-10T20:17:07.880Z,20.38
2019-06-10T20:19:37.834Z,20.32
2019-06-10T20:22:05.766Z,20.34
2019-06-10T20:24:34.658Z,20.17
2019-06-10T20:27:03.585Z,20.28
2019-06-10T20:29:32.913Z,20.20
2019-06-10T20:32:01.377Z,20.06
2019-06-10T20:34:30.306Z,20.13
2019-06-10T20:36:59.216Z,20.09
2019-06-10T20:39:29.515Z,19.97
2019-06-10T20:41:57.054Z,19.95
2019-06-10T20:44:25.986Z,20.27
2019-06-10T20:46:54.896Z,19.89
2019-06-10T20:49:23.799Z,19.77
2019-06-10T20:52:06.396Z,19.77
2019-06-10T20:54:23.206Z,19.80
2019-06-10T20:56:53.293Z,19.81
2019-06-10T20:59:22.532Z,19.72
2019-06-10T21:01:49.498Z,19.67
2019-06-10T21:04:17.472Z,19.57
2019-06-10T21:06:47.397Z,19.51
2019-06-10T21:09:15.354Z,19.51
2019-06-10T21:11:47.009Z,19.54
2019-06-10T21:14:13.160Z,19.48
2019-06-10T21:16:42.178Z,19.50
2019-06-10T21:19:10.970Z,19.44
2019-06-10T21:21:40.421Z,19.48
2019-06-10T21:24:08.826Z,19.37
2019-06-10T21:26:37.711Z,19.31
2019-06-10T21:29:06.705Z,19.34
2019-06-10T21:31:35.596Z,19.34
2019-06-10T21:34:04.528Z,19.32
2019-06-10T21:36:33.378Z,19.32
2019-06-10T21:39:02.882Z,19.35
2019-06-10T21:41:31.184Z,19.29
2019-06-10T21:44:02.790Z,19.27
2019-06-10T21:46:29.019Z,19.17
2019-06-10T21:48:57.906Z,19.14
2019-06-10T21:51:26.818Z,19.16
2019-06-10T21:53:55.827Z,19.11
2019-06-10T21:56:24.712Z,18.97
2019-06-10T21:58:55.390Z,19.04
2019-06-10T22:01:22.708Z,19.03
2019-06-10T22:04:00.207Z,19.00
2019-06-10T22:06:22.595Z,19.01
2019-06-10T22:08:50.052Z,19.03
2019-06-10T22:11:18.148Z,18.91
2019-06-10T22:13:48.087Z,18.88
2019-06-10T22:16:15.952Z,18.92
2019-06-10T22:18:44.869Z,18.95
2019-06-10T22:21:14.727Z,18.98
2019-06-10T22:23:42.721Z,18.98
2019-06-10T22:26:13.084Z,18.92
2019-06-10T22:28:43.103Z,18.87
2019-06-10T22:31:19.811Z,18.80
2019-06-10T22:33:38.428Z,18.83
2019-06-10T22:36:07.434Z,18.77
2019-06-10T22:38:36.372Z,18.79
2019-06-10T22:41:05.257Z,18.81
2019-06-10T22:43:34.156Z,18.83
2019-06-10T22:46:03.963Z,18.89
2019-06-10T22:48:33.309Z,18.87
2019-06-10T22:51:00.905Z,18.86
2019-06-10T22:53:29.828Z,18.89
2019-06-10T22:55:59.275Z,18.92
2019-06-10T22:58:27.666Z,18.92
2019-06-10T23:00:57.885Z,18.93
2019-06-10T23:03:25.538Z,19.18
2019-06-10T23:05:54.536Z,18.87
2019-06-10T23:08:23.448Z,18.86
2019-06-10T23:10:53.709Z,18.69
2019-06-10T23:13:23.125Z,18.63
2019-06-10T23:15:53.453Z,18.68
2019-06-10T23:18:19.089Z,18.63
2019-06-10T23:20:49.175Z,18.57
2019-06-10T23:23:16.935Z,18.54
2019-06-10T23:25:45.854Z,18.39
2019-06-10T23:28:14.796Z,18.46
2019-06-10T23:30:43.724Z,18.43
2019-06-10T23:33:12.756Z,18.28
2019-06-10T23:35:42.925Z,18.25
2019-06-10T23:38:12.902Z,18.26
2019-06-10T23:40:39.350Z,18.25
2019-06-10T23:43:08.291Z,18.20
2019-06-10T23:45:37.182Z,17.96
2019-06-10T23:48:06.144Z,17.88
2019-06-10T23:50:35.148Z,18.26
2019-06-10T23:53:07.521Z,17.92
2019-06-10T23:55:32.997Z,17.61
2019-06-10T23:58:02.465Z,17.56
